createdAt,value
2022-12-23T00:00:45.162Z,44.84
2022-12-23T00:03:12.804Z,44.79
2022-12-23T00:05:40.720Z,44.59
2022-12-23T00:08:08.316Z,45.01
2022-12-23T00:10:40.102Z,44.75
2022-12-23T00:13:28.371Z,44.74
2022-12-23T00:16:10.919Z,44.44
2022-12-23T00:18:38.834Z,44.86
2022-12-23T00:21:11.591Z,44.96
2022-12-23T00:23:41.303Z,44.99
2022-12-23T00:26:15.245Z,44.71
2022-12-23T00:28:42.905Z,44.74
2022-12-23T00:31:11.200Z,44.80
2022-12-23T00:33:43.921Z,44.99
2022-12-23T00:36:12.627Z,44.80
2022-12-23T00:38:58.894Z,45.09
2022-12-23T00:41:44.938Z,44.64
2022-12-23T00:44:13.174Z,45.12
2022-12-23T00:46:40.857Z,44.92
2022-12-23T00:49:27.112Z,45.14
2022-12-23T00:51:54.485Z,44.86
2022-12-23T00:54:21.905Z,44.38
2022-12-23T00:56:49.286Z,44.37
2022-12-23T00:59:16.708Z,43.87
2022-12-23T01:02:02.851Z,44.18
2022-12-23T01:04:49.094Z,44.25
2022-12-23T01:07:16.449Z,43.80
2022-12-23T01:09:43.884Z,44.07
2022-12-23T01:12:11.273Z,43.69
2022-12-23T01:14:39.155Z,44.07
2022-12-23T01:17:08.362Z,44.03
2022-12-23T01:19:36.165Z,43.76
2022-12-23T01:22:03.627Z,44.13
2022-12-23T01:24:33.271Z,43.92
2022-12-23T01:27:01.176Z,44.07
2022-12-23T01:29:29.014Z,44.11
2022-12-23T01:31:56.459Z,43.84
2022-12-23T01:34:23.935Z,44.17
2022-12-23T01:36:51.396Z,44.36
2022-12-23T01:39:18.731Z,43.71
2022-12-23T01:42:04.573Z,44.09
2022-12-23T01:44:53.566Z,43.64
2022-12-23T01:47:43.897Z,44.00
2022-12-23T01:50:23.136Z,44.15
2022-12-23T01:53:21.653Z,44.04
2022-12-23T01:56:03.617Z,44.25
2022-12-23T01:58:42.147Z,44.34
2022-12-23T02:01:29.604Z,44.23
2022-12-23T02:04:00.669Z,43.82
2022-12-23T02:06:58.405Z,44.13
2022-12-23T02:09:29.889Z,43.71
2022-12-23T02:12:43.956Z,43.99
2022-12-23T02:16:00.187Z,44.51
2022-12-23T02:18:58.070Z,44.26
2022-12-23T02:21:31.249Z,44.20
2022-12-23T02:24:14.164Z,44.56
2022-12-23T02:26:59.610Z,44.13
2022-12-23T02:29:45.183Z,44.50
2022-12-23T02:32:29.376Z,44.33
2022-12-23T02:35:12.485Z,43.82
2022-12-23T02:38:05.458Z,44.29
2022-12-23T02:40:38.926Z,43.99
2022-12-23T02:43:18.739Z,44.59
2022-12-23T02:46:05.027Z,44.92
2022-12-23T02:48:41.645Z,45.10
2022-12-23T02:51:13.809Z,44.51
2022-12-23T02:53:50.921Z,44.88
2022-12-23T02:56:20.507Z,44.67
2022-12-23T02:58:54.443Z,44.31
2022-12-23T03:01:24.938Z,44.23
2022-12-23T03:03:52.380Z,44.50
2022-12-23T03:06:24.043Z,44.70
2022-12-23T03:08:55.389Z,44.05
2022-12-23T03:11:40.103Z,44.57
2022-12-23T03:14:24.632Z,44.41
2022-12-23T03:16:58.577Z,44.26
2022-12-23T03:19:32.433Z,44.55
2022-12-23T03:22:18.696Z,44.38
2022-12-23T03:25:04.707Z,44.33
2022-12-23T03:27:45.565Z,44.62
2022-12-23T03:30:16.903Z,44.33
2022-12-23T03:32:49.412Z,44.07
2022-12-23T03:35:21.477Z,44.04
2022-12-23T03:37:51.164Z,44.22
2022-12-23T03:40:23.822Z,44.53
2022-12-23T03:43:00.820Z,44.09
2022-12-23T03:45:40.786Z,44.12
2022-12-23T03:48:16.929Z,43.97
2022-12-23T03:50:48.704Z,44.08
2022-12-23T03:53:25.895Z,43.57
2022-12-23T03:56:01.905Z,43.84
2022-12-23T03:58:51.242Z,44.39
2022-12-23T04:01:27.043Z,43.81
2022-12-23T04:04:05.695Z,44.33
2022-12-23T04:06:57.485Z,43.70
2022-12-23T04:09:28.070Z,43.81
2022-12-23T04:11:57.121Z,44.28
2022-12-23T04:14:24.712Z,43.83
2022-12-23T04:16:55.757Z,44.10
2022-12-23T04:19:23.192Z,44.09
2022-12-23T04:21:50.620Z,44.11
2022-12-23T04:24:17.997Z,43.93
2022-12-23T04:26:45.317Z,43.69
2022-12-23T04:29:12.653Z,44.08
2022-12-23T04:31:40.083Z,44.19
2022-12-23T04:34:07.426Z,43.82
2022-12-23T04:36:34.773Z,43.69
2022-12-23T04:39:02.145Z,43.64
2022-12-23T04:41:29.483Z,43.57
2022-12-23T04:43:56.824Z,43.56
2022-12-23T04:46:24.245Z,43.72
2022-12-23T04:48:51.712Z,43.67
2022-12-23T04:51:19.079Z,43.53
2022-12-23T04:53:46.469Z,44.04
2022-12-23T04:56:13.775Z,43.92
2022-12-23T04:58:41.146Z,43.64
2022-12-23T05:01:12.164Z,43.92
2022-12-23T05:03:40.757Z,43.84
2022-12-23T05:06:08.684Z,43.46
2022-12-23T05:08:36.281Z,43.59
2022-12-23T05:11:03.850Z,44.21
2022-12-23T05:13:31.185Z,44.03
2022-12-23T05:15:58.678Z,44.09
2022-12-23T05:18:26.107Z,44.19
2022-12-23T05:20:53.611Z,44.42
2022-12-23T05:23:21.122Z,44.56
2022-12-23T05:25:53.380Z,44.67
2022-12-23T05:28:21.995Z,44.75
2022-12-23T05:30:49.355Z,44.64
2022-12-23T05:33:16.724Z,44.70
2022-12-23T05:35:44.069Z,44.62
2022-12-23T05:38:11.456Z,44.34
2022-12-23T05:40:38.787Z,44.06
2022-12-23T05:43:06.338Z,43.68
2022-12-23T05:45:36.445Z,43.80
2022-12-23T05:48:04.039Z,43.24
2022-12-23T05:50:31.476Z,43.47
2022-12-23T05:53:02.378Z,43.51
2022-12-23T05:55:29.801Z,43.08
2022-12-23T05:57:57.158Z,42.88
2022-12-23T06:00:25.051Z,43.00
2022-12-23T06:02:54.229Z,43.51
2022-12-23T06:05:22.355Z,43.37
2022-12-23T06:07:50.527Z,43.37
2022-12-23T06:10:17.981Z,42.77
2022-12-23T06:12:45.459Z,42.79
2022-12-23T06:15:12.887Z,43.19
2022-12-23T06:17:40.266Z,42.69
2022-12-23T06:20:11.172Z,43.25
2022-12-23T06:22:40.868Z,42.74
2022-12-23T06:25:08.649Z,42.62
2022-12-23T06:27:35.968Z,42.69
2022-12-23T06:30:03.614Z,42.88
2022-12-23T06:32:37.742Z,42.67
2022-12-23T06:35:07.663Z,42.87
2022-12-23T06:37:35.381Z,42.81
2022-12-23T06:40:02.904Z,42.87
2022-12-23T06:42:30.427Z,42.92
2022-12-23T06:44:57.749Z,42.99
2022-12-23T06:47:25.097Z,42.71
2022-12-23T06:49:52.435Z,42.59
2022-12-23T06:52:19.769Z,42.18
2022-12-23T06:54:47.067Z,42.33
2022-12-23T06:57:14.663Z,42.43
2022-12-23T06:59:41.998Z,42.59
2022-12-23T07:02:11.927Z,42.26
2022-12-23T07:04:39.495Z,42.61
2022-12-23T07:07:06.941Z,42.52
2022-12-23T07:09:34.285Z,42.51
2022-12-23T07:12:03.226Z,42.74
2022-12-23T07:14:30.816Z,42.49
2022-12-23T07:16:58.357Z,42.13
2022-12-23T07:19:25.897Z,42.68
2022-12-23T07:21:53.259Z,42.52
2022-12-23T07:24:20.762Z,42.49
2022-12-23T07:26:48.191Z,42.09
2022-12-23T07:29:15.542Z,42.57
2022-12-23T07:31:43.065Z,42.51
2022-12-23T07:34:10.405Z,42.03
2022-12-23T07:36:37.788Z,42.15
2022-12-23T07:39:05.340Z,42.14
2022-12-23T07:41:32.760Z,41.96
2022-12-23T07:44:08.804Z,42.22
2022-12-23T07:46:36.375Z,42.04
2022-12-23T07:49:03.761Z,42.44
2022-12-23T07:51:31.612Z,42.11
2022-12-23T07:53:59.008Z,42.17
2022-12-23T07:56:26.481Z,42.42
2022-12-23T07:58:54.587Z,42.43
2022-12-23T08:01:22.620Z,42.11
2022-12-23T08:03:50.061Z,41.69
2022-12-23T08:06:17.619Z,41.98
2022-12-23T08:08:46.450Z,42.18
2022-12-23T08:11:15.165Z,42.25
2022-12-23T08:13:44.085Z,42.06
2022-12-23T08:16:12.564Z,41.96
2022-12-23T08:18:41.513Z,41.88
2022-12-23T08:21:14.941Z,41.88
2022-12-23T08:23:43.685Z,42.14
2022-12-23T08:26:12.657Z,41.79
2022-12-23T08:28:41.616Z,41.99
2022-12-23T08:31:20.055Z,41.57
2022-12-23T08:33:50.007Z,41.90
2022-12-23T08:36:23.176Z,41.96
2022-12-23T08:38:53.241Z,41.70
2022-12-23T08:41:23.909Z,42.17
2022-12-23T08:43:51.490Z,41.67
2022-12-23T08:46:19.081Z,41.82
2022-12-23T08:48:49.370Z,41.78
2022-12-23T08:51:19.710Z,42.19
2022-12-23T08:53:48.458Z,41.82
2022-12-23T08:56:21.295Z,41.56
2022-12-23T08:58:52.741Z,41.63
2022-12-23T09:01:25.158Z,41.55
2022-12-23T09:03:52.707Z,41.80
2022-12-23T09:06:30.422Z,41.53
2022-12-23T09:08:58.572Z,41.64
2022-12-23T09:11:29.184Z,41.87
2022-12-23T09:13:58.461Z,41.64
2022-12-23T09:16:26.015Z,41.55
2022-12-23T09:18:53.504Z,42.01
2022-12-23T09:21:22.596Z,41.88
2022-12-23T09:23:50.784Z,41.73
2022-12-23T09:26:24.908Z,41.71
2022-12-23T09:28:52.881Z,41.57
2022-12-23T09:31:21.283Z,41.85
2022-12-23T09:33:50.878Z,42.02
2022-12-23T09:36:18.701Z,42.01
2022-12-23T09:38:46.047Z,41.65
2022-12-23T09:41:31.544Z,41.46
2022-12-23T09:44:10.950Z,41.93
2022-12-23T09:46:48.319Z,41.67
2022-12-23T09:49:17.735Z,41.79
2022-12-23T09:51:48.571Z,41.66
2022-12-23T09:54:29.383Z,41.59
2022-12-23T09:57:07.540Z,41.92
2022-12-23T09:59:51.099Z,41.95
2022-12-23T10:02:30.455Z,41.68
2022-12-23T10:18:35.478Z,41.63
2022-12-23T10:21:47.606Z,41.78
2022-12-23T10:24:18.245Z,41.71
2022-12-23T10:26:53.633Z,41.09
2022-12-23T10:29:23.391Z,41.71
2022-12-23T10:32:26.471Z,41.78
2022-12-23T10:35:18.116Z,41.73
2022-12-23T10:37:57.655Z,41.40
2022-12-23T10:40:50.232Z,41.50
2022-12-23T10:43:24.886Z,41.52
2022-12-23T10:46:30.059Z,41.38
2022-12-23T10:49:05.089Z,41.34
2022-12-23T10:51:49.478Z,41.47
2022-12-23T10:54:24.967Z,41.77
2022-12-23T10:56:53.862Z,41.68
2022-12-23T10:59:42.071Z,41.38
2022-12-23T11:02:37.127Z,41.72
2022-12-23T11:05:14.703Z,41.42
2022-12-23T11:07:45.404Z,41.38
2022-12-23T11:10:21.044Z,41.54
2022-12-23T11:12:51.816Z,41.65
2022-12-23T11:15:28.991Z,41.58
2022-12-23T11:18:13.430Z,41.95
2022-12-23T11:20:43.237Z,41.53
2022-12-23T11:23:39.944Z,41.67
2022-12-23T11:26:13.828Z,41.82
2022-12-23T11:28:50.283Z,41.69
2022-12-23T11:31:28.110Z,41.92
2022-12-23T11:34:04.724Z,41.57
2022-12-23T11:36:34.236Z,41.62
2022-12-23T11:39:10.474Z,41.91
2022-12-23T11:41:42.069Z,41.57
2022-12-23T11:44:24.185Z,41.63
2022-12-23T11:46:52.046Z,41.56
2022-12-23T11:49:26.455Z,41.75
2022-12-23T11:52:06.274Z,41.50
2022-12-23T11:54:34.245Z,41.71
2022-12-23T11:57:08.639Z,41.52
2022-12-23T11:59:49.836Z,41.91
2022-12-23T12:02:21.941Z,41.48
2022-12-23T12:05:15.509Z,41.53
2022-12-23T12:07:46.942Z,41.63
2022-12-23T12:10:28.965Z,41.42
2022-12-23T12:13:05.795Z,41.66
2022-12-23T12:16:02.832Z,41.58
2022-12-23T12:18:31.019Z,41.87
2022-12-23T12:21:05.646Z,42.07
2022-12-23T12:24:14.649Z,41.60
2022-12-23T12:26:47.087Z,41.62
2022-12-23T12:29:37.226Z,41.86
2022-12-23T12:32:11.945Z,41.91
2022-12-23T12:34:47.646Z,41.66
2022-12-23T12:37:37.285Z,42.19
2022-12-23T12:40:30.818Z,41.71
2022-12-23T12:43:05.681Z,41.91
2022-12-23T12:45:43.928Z,41.74
2022-12-23T12:48:29.611Z,42.11
2022-12-23T12:51:09.481Z,42.15
2022-12-23T12:53:50.985Z,42.32
2022-12-23T12:56:34.053Z,42.24
2022-12-23T12:59:01.520Z,42.33
2022-12-23T13:01:49.645Z,42.26
2022-12-23T13:04:42.574Z,42.41
2022-12-23T13:07:39.385Z,42.20
2022-12-23T13:10:39.082Z,42.41
2022-12-23T13:13:09.534Z,42.60
2022-12-23T13:16:07.225Z,42.62
2022-12-23T13:18:43.902Z,42.69
2022-12-23T13:21:24.165Z,42.96
2022-12-23T13:24:04.939Z,42.87
2022-12-23T13:26:57.028Z,43.16
2022-12-23T13:29:30.382Z,42.84
2022-12-23T13:32:16.845Z,43.15
2022-12-23T13:35:06.106Z,43.41
2022-12-23T13:37:45.597Z,43.55
2022-12-23T13:40:15.763Z,43.43
2022-12-23T13:42:52.619Z,43.84
2022-12-23T13:45:24.323Z,43.40
2022-12-23T13:48:19.333Z,43.33
2022-12-23T13:51:27.223Z,43.73
2022-12-23T13:54:04.136Z,43.68
2022-12-23T13:56:43.079Z,44.02
2022-12-23T13:59:14.263Z,43.68
2022-12-23T14:01:41.596Z,43.71
2022-12-23T14:04:57.433Z,43.97
2022-12-23T14:07:27.606Z,43.84
2022-12-23T14:09:58.673Z,44.06
2022-12-23T14:12:29.674Z,44.20
2022-12-23T14:15:34.772Z,44.06
2022-12-23T14:18:25.484Z,44.14
2022-12-23T14:21:14.365Z,44.22
2022-12-23T14:23:50.068Z,44.42
2022-12-23T14:26:39.583Z,44.47
2022-12-23T14:29:12.943Z,44.44
2022-12-23T14:31:44.698Z,44.08
2022-12-23T14:34:18.135Z,44.24
2022-12-23T14:37:20.997Z,44.49
2022-12-23T14:39:49.866Z,44.05
2022-12-23T14:42:34.026Z,44.46
2022-12-23T14:45:43.360Z,44.49
2022-12-23T14:48:35.815Z,44.30
2022-12-23T14:51:23.476Z,44.26
2022-12-23T14:53:53.878Z,44.55
2022-12-23T14:56:25.941Z,44.76
2022-12-23T14:59:31.066Z,44.31
2022-12-23T15:02:01.849Z,44.22
2022-12-23T15:04:35.711Z,44.62
2022-12-23T15:07:06.723Z,44.52
2022-12-23T15:09:47.471Z,44.71
2022-12-23T15:12:32.546Z,44.35
2022-12-23T15:15:04.749Z,44.56
2022-12-23T15:17:35.159Z,44.88
2022-12-23T15:20:15.672Z,44.64
2022-12-23T15:22:44.877Z,44.99
2022-12-23T15:25:33.037Z,44.63
2022-12-23T15:28:02.952Z,44.66
2022-12-23T15:30:35.339Z,44.66
2022-12-23T15:33:15.997Z,44.87
2022-12-23T15:35:53.872Z,45.18
2022-12-23T15:38:25.861Z,44.75
2022-12-23T15:41:06.033Z,44.75
2022-12-23T15:43:40.313Z,45.22
2022-12-23T15:46:21.897Z,44.94
2022-12-23T15:48:52.786Z,44.86
2022-12-23T15:51:58.248Z,45.36
2022-12-23T15:54:27.486Z,44.80
2022-12-23T15:56:58.180Z,44.90
2022-12-23T15:59:32.021Z,45.16
2022-12-23T16:02:32.191Z,44.80
2022-12-23T16:05:00.342Z,45.27
2022-12-23T16:07:35.632Z,45.24
2022-12-23T16:10:30.939Z,45.07
2022-12-23T16:12:58.845Z,44.85
2022-12-23T16:15:33.515Z,45.30
2022-12-23T16:18:13.406Z,45.30
2022-12-23T16:21:01.715Z,45.33
2022-12-23T16:23:34.846Z,45.63
2022-12-23T16:26:03.078Z,45.46
2022-12-23T16:28:39.007Z,45.46
2022-12-23T16:31:08.092Z,45.82
2022-12-23T16:33:47.498Z,45.75
2022-12-23T16:36:27.199Z,45.79
2022-12-23T16:39:06.908Z,46.34
2022-12-23T16:41:35.111Z,45.85
2022-12-23T16:44:03.369Z,46.32
2022-12-23T16:46:43.181Z,46.05
2022-12-23T16:49:19.291Z,46.42
2022-12-23T16:51:47.664Z,46.38
2022-12-23T16:54:20.149Z,46.17
2022-12-23T16:56:47.604Z,46.24
2022-12-23T16:59:15.052Z,45.59
2022-12-23T17:01:45.960Z,44.92
2022-12-23T17:04:14.061Z,44.82
2022-12-23T17:06:42.008Z,44.62
2022-12-23T17:09:10.496Z,44.67
2022-12-23T17:11:46.981Z,44.29
2022-12-23T17:14:20.337Z,44.17
2022-12-23T17:16:48.543Z,44.42
2022-12-23T17:19:20.525Z,44.30
2022-12-23T17:21:55.513Z,44.33
2022-12-23T17:24:25.500Z,44.16
2022-12-23T17:26:54.522Z,44.24
2022-12-23T17:29:22.168Z,44.28
2022-12-23T17:31:50.479Z,44.26
2022-12-23T17:34:23.535Z,44.15
2022-12-23T17:36:51.658Z,43.86
2022-12-23T17:39:20.876Z,44.11
2022-12-23T17:41:48.725Z,44.34
2022-12-23T17:44:17.370Z,44.28
2022-12-23T17:46:46.142Z,44.16
2022-12-23T17:49:14.002Z,43.89
2022-12-23T17:51:41.981Z,43.88
2022-12-23T17:54:21.717Z,44.36
2022-12-23T17:56:50.025Z,43.96
2022-12-23T17:59:17.686Z,44.04
2022-12-23T18:01:45.199Z,44.19
2022-12-23T18:04:12.662Z,44.37
2022-12-23T18:06:40.041Z,44.45
2022-12-23T18:09:07.425Z,44.50
2022-12-23T18:11:41.468Z,44.36
2022-12-23T18:14:27.827Z,43.98
2022-12-23T18:16:56.241Z,44.06
2022-12-23T18:19:23.706Z,44.38
2022-12-23T18:21:51.976Z,44.23
2022-12-23T18:24:19.382Z,44.44
2022-12-23T18:26:47.553Z,44.59
2022-12-23T18:29:15.055Z,44.56
2022-12-23T18:31:51.117Z,44.21
2022-12-23T18:34:19.892Z,44.40
2022-12-23T18:36:48.436Z,44.83
2022-12-23T18:39:16.095Z,44.49
2022-12-23T18:41:43.517Z,44.76
2022-12-23T18:44:21.316Z,44.65
2022-12-23T18:46:50.064Z,44.80
2022-12-23T18:49:17.549Z,44.32
2022-12-23T18:51:45.526Z,44.34
2022-12-23T18:54:14.906Z,44.50
2022-12-23T18:56:43.084Z,44.77
2022-12-23T18:59:29.288Z,44.67
2022-12-23T19:01:58.017Z,44.39
2022-12-23T19:04:27.012Z,44.69
2022-12-23T19:06:55.748Z,44.38
2022-12-23T19:09:24.463Z,44.60
2022-12-23T19:11:53.445Z,44.67
2022-12-23T19:14:21.104Z,44.56
2022-12-23T19:16:51.924Z,44.26
2022-12-23T19:19:21.164Z,44.54
2022-12-23T19:21:48.622Z,44.65
2022-12-23T19:24:16.092Z,44.14
2022-12-23T19:26:43.448Z,44.69
2022-12-23T19:29:10.838Z,44.26
2022-12-23T19:31:38.164Z,44.49
2022-12-23T19:34:11.109Z,44.47
2022-12-23T19:36:41.981Z,44.14
2022-12-23T19:39:15.893Z,44.47
2022-12-23T19:41:43.398Z,44.39
2022-12-23T19:44:10.849Z,44.39
2022-12-23T19:46:38.207Z,44.04
2022-12-23T19:49:05.699Z,43.96
2022-12-23T19:51:33.090Z,43.99
2022-12-23T19:54:00.548Z,44.13
2022-12-23T19:56:30.088Z,44.41
2022-12-23T19:58:57.388Z,44.07
2022-12-23T20:01:26.428Z,44.45
2022-12-23T20:03:55.587Z,44.08
2022-12-23T20:06:28.428Z,43.96
2022-12-23T20:09:00.829Z,44.19
2022-12-23T20:11:30.724Z,44.41
2022-12-23T20:14:00.171Z,44.38
2022-12-23T20:16:29.175Z,44.00
2022-12-23T20:18:57.290Z,44.47
2022-12-23T20:21:24.768Z,43.98
2022-12-23T20:23:52.313Z,44.46
2022-12-23T20:26:20.664Z,44.37
2022-12-23T20:28:48.082Z,44.13
2022-12-23T20:31:20.785Z,44.39
2022-12-23T20:33:49.835Z,44.51
2022-12-23T20:36:20.572Z,44.47
2022-12-23T20:38:48.374Z,44.20
2022-12-23T20:41:17.745Z,44.22
2022-12-23T20:43:56.882Z,44.50
2022-12-23T20:46:32.583Z,44.28
2022-12-23T20:49:00.496Z,44.28
2022-12-23T20:51:27.939Z,44.16
2022-12-23T20:54:01.023Z,44.64
2022-12-23T20:56:30.385Z,44.29
2022-12-23T20:58:59.439Z,45.11
2022-12-23T21:01:31.842Z,45.23
2022-12-23T21:04:02.509Z,45.41
2022-12-23T21:06:31.050Z,45.52
2022-12-23T21:09:00.100Z,45.35
2022-12-23T21:11:29.581Z,45.79
2022-12-23T21:14:02.609Z,45.57
2022-12-23T21:16:34.877Z,46.01
2022-12-23T21:19:02.918Z,45.81
2022-12-23T21:21:31.805Z,46.23
2022-12-23T21:24:01.476Z,46.27
2022-12-23T21:26:30.185Z,46.23
2022-12-23T21:28:59.919Z,46.59
2022-12-23T21:31:29.273Z,46.70
2022-12-23T21:33:58.333Z,46.94
2022-12-23T21:36:32.429Z,47.30
2022-12-23T21:39:00.340Z,47.41
2022-12-23T21:41:30.484Z,47.36
2022-12-23T21:43:59.220Z,47.02
2022-12-23T21:46:28.805Z,47.19
2022-12-23T21:48:57.696Z,47.51
2022-12-23T21:51:31.911Z,47.36
2022-12-23T21:54:06.670Z,47.14
2022-12-23T21:56:34.518Z,47.08
2022-12-23T21:59:07.158Z,47.29
2022-12-23T22:01:35.387Z,47.26
2022-12-23T22:04:03.374Z,47.15
2022-12-23T22:06:35.896Z,47.14
2022-12-23T22:09:07.909Z,46.83
2022-12-23T22:11:36.665Z,46.60
2022-12-23T22:14:06.457Z,46.54
2022-12-23T22:16:34.986Z,46.85
2022-12-23T22:19:04.240Z,46.31
2022-12-23T22:21:33.334Z,46.77
2022-12-23T22:24:01.326Z,46.59
2022-12-23T22:26:31.598Z,46.68
2022-12-23T22:29:01.405Z,47.06
2022-12-23T22:31:39.982Z,46.85
2022-12-23T22:34:10.808Z,46.63
2022-12-23T22:36:38.344Z,46.90
2022-12-23T22:39:07.596Z,46.48
2022-12-23T22:41:35.619Z,46.78
2022-12-23T22:44:03.017Z,46.73
2022-12-23T22:46:31.217Z,46.53
2022-12-23T22:48:58.996Z,46.42
2022-12-23T22:51:28.949Z,46.62
2022-12-23T22:53:57.147Z,46.60
2022-12-23T22:56:25.899Z,46.20
2022-12-23T22:58:54.180Z,46.40
2022-12-23T23:01:28.030Z,46.58
2022-12-23T23:03:57.956Z,46.35
2022-12-23T23:06:28.293Z,46.36
2022-12-23T23:08:56.418Z,46.23
2022-12-23T23:11:25.266Z,46.05
2022-12-23T23:13:53.167Z,46.33
2022-12-23T23:16:21.399Z,46.44
2022-12-23T23:18:49.090Z,46.03
2022-12-23T23:21:17.034Z,45.90
2022-12-23T23:23:44.543Z,46.36
2022-12-23T23:26:12.536Z,45.94
2022-12-23T23:28:40.715Z,46.12
2022-12-23T23:31:40.561Z,46.39
2022-12-23T23:33:57.884Z,46.24
2022-12-23T23:36:25.827Z,46.50
2022-12-23T23:38:53.268Z,46.41
2022-12-23T23:41:23.508Z,46.74
2022-12-23T23:43:52.268Z,47.03
2022-12-23T23:46:19.871Z,46.80
2022-12-23T23:48:47.484Z,47.39
2022-12-23T23:51:15.042Z,47.48
2022-12-23T23:53:42.392Z,47.52
2022-12-23T23:56:10.479Z,47.63
2022-12-23T23:58:38.030Z,47.79
